Time;durP1;ratioP1;P1;durP2;ratioP2;P2;SDS_P1;SDS_P2;PMS_P1;PMS_P2;Temp;Humidity;BMP_temperature;BMP_pressure;BME280_temperature;BME280_humidity;BME280_pressure;Samples;Min_cycle;Max_cycle;Signal;HPM_P1;HPM_P2
2023/06/28 00:01:15;;;;;;;2.63;1.73;;;;;;;21.27;59.13;101851.13;5019189;28;20105;-47
2023/06/28 00:03:41;;;;;;;4.05;2.10;;;;;;;21.26;58.78;101857.50;5013216;28;20030;-49
2023/06/28 00:06:07;;;;;;;5.97;1.85;;;;;;;21.24;58.78;101848.69;5017088;28;20018;-49
2023/06/28 00:08:32;;;;;;;5.10;1.77;;;;;;;21.24;58.68;101850.53;5014620;28;20035;-49
2023/06/28 00:10:58;;;;;;;2.92;1.67;;;;;;;21.22;58.99;101847.97;5012456;28;20038;-50
2023/06/28 00:13:24;;;;;;;6.18;1.88;;;;;;;21.22;58.86;101844.41;5020655;28;20029;-48
2023/06/28 00:15:49;;;;;;;4.07;1.90;;;;;;;21.21;58.78;101864.34;5013523;28;20523;-49
2023/06/28 00:18:15;;;;;;;4.07;1.70;;;;;;;21.23;59.29;101865.09;5013266;28;20507;-49
2023/06/28 00:20:44;;;;;;;6.50;2.00;;;;;;;21.21;58.93;101853.53;5018796;28;20117;-49
2023/06/28 00:23:11;;;;;;;5.97;2.20;;;;;;;21.21;58.97;101854.41;5013416;28;20030;-49
2023/06/28 00:25:36;;;;;;;5.13;1.63;;;;;;;21.19;59.07;101852.81;5014811;28;20492;-48
2023/06/28 00:28:02;;;;;;;4.07;1.60;;;;;;;21.19;59.20;101848.28;5019827;28;20060;-50
2023/06/28 00:30:27;;;;;;;4.13;1.73;;;;;;;21.20;59.11;101854.53;5013159;28;20061;-49
2023/06/28 00:32:53;;;;;;;5.88;2.05;;;;;;;21.17;59.30;101855.69;5024881;28;20026;-49
2023/06/28 00:35:18;;;;;;;6.38;2.22;;;;;;;21.15;59.58;101857.69;5014506;28;20040;-50
2023/06/28 00:37:44;;;;;;;5.78;2.22;;;;;;;21.18;59.55;101864.66;5013512;28;20060;-49
2023/06/28 00:40:09;;;;;;;4.05;1.77;;;;;;;21.14;59.17;101871.38;5011254;28;20141;-51
2023/06/28 00:42:35;;;;;;;5.75;2.10;;;;;;;21.14;59.57;101863.25;5016563;28;20404;-48
2023/06/28 00:45:00;;;;;;;7.85;2.10;;;;;;;21.13;59.38;101861.53;5016427;28;20112;-48
2023/06/28 00:47:27;;;;;;;4.35;2.20;;;;;;;21.13;59.72;101864.22;5016238;28;20036;-48
2023/06/28 00:49:55;;;;;;;3.08;1.70;;;;;;;21.12;59.70;101865.25;5012938;28;20042;-48
2023/06/28 00:52:21;;;;;;;4.50;1.98;;;;;;;21.12;59.53;101862.53;5020334;28;20120;-49
2023/06/28 00:54:47;;;;;;;5.32;1.55;;;;;;;21.10;60.16;101862.66;5012475;28;20042;-49
2023/06/28 00:57:12;;;;;;;2.58;1.80;;;;;;;21.13;60.08;101861.53;5014135;28;20033;-49
2023/06/28 00:59:38;;;;;;;2.70;1.50;;;;;;;21.12;60.31;101867.94;5017026;28;20030;-49
2023/06/28 01:02:04;;;;;;;3.20;1.80;;;;;;;21.09;60.02;101867.25;5022471;28;20486;-47
2023/06/28 01:04:29;;;;;;;2.80;1.80;;;;;;;21.11;60.52;101868.94;5020241;28;20034;-47
2023/06/28 01:06:59;;;;;;;2.67;1.88;;;;;;;21.10;60.54;101865.38;5019897;28;20033;-51
2023/06/28 01:09:27;;;;;;;6.38;2.17;;;;;;;21.08;60.48;101870.94;5018151;28;20474;-50
2023/06/28 01:11:54;;;;;;;3.08;1.90;;;;;;;21.08;60.50;101868.22;5018990;28;20487;-50
2023/06/28 01:14:21;;;;;;;4.82;2.15;;;;;;;21.07;60.36;101862.94;5020024;28;20030;-50
2023/06/28 01:16:54;;;;;;;3.95;1.77;;;;;;;21.05;60.63;101860.38;5020546;28;20108;-49
2023/06/28 01:19:24;;;;;;;4.80;1.80;;;;;;;21.04;60.47;101864.09;5021692;28;20033;-49
2023/06/28 01:21:53;;;;;;;5.20;1.95;;;;;;;21.04;60.19;101858.69;5020005;28;20033;-49
2023/06/28 01:24:21;;;;;;;3.38;1.98;;;;;;;21.03;59.70;101862.38;5019829;28;20510;-50
2023/06/28 01:26:52;;;;;;;4.45;2.13;;;;;;;21.02;59.34;101855.25;5020408;28;20038;-48
2023/06/28 01:29:21;;;;;;;3.13;1.40;;;;;;;21.03;59.24;101858.81;5019209;28;20038;-49
2023/06/28 01:31:51;;;;;;;3.35;2.00;;;;;;;21.02;59.22;101857.13;5017768;28;20026;-49
2023/06/28 01:34:17;;;;;;;3.53;1.95;;;;;;;21.01;59.21;101853.53;5019389;28;20037;-50
2023/06/28 01:36:42;;;;;;;3.40;1.85;;;;;;;21.00;59.67;101854.53;5022744;28;20044;-49
2023/06/28 01:39:08;;;;;;;3.45;2.00;;;;;;;21.00;59.83;101851.84;5019361;28;20032;-49
2023/06/28 01:41:34;;;;;;;3.95;2.00;;;;;;;20.98;59.72;101848.41;5017399;28;20034;-49
2023/06/28 01:44:00;;;;;;;4.72;2.20;;;;;;;21.01;59.74;101852.69;5017953;28;20044;-48
2023/06/28 01:46:25;;;;;;;4.72;2.35;;;;;;;20.98;59.51;101848.41;5017927;28;20038;-48
2023/06/28 01:48:51;;;;;;;4.10;2.25;;;;;;;20.99;59.83;101854.69;5016422;28;20449;-51
2023/06/28 01:51:16;;;;;;;6.55;2.40;;;;;;;20.99;60.02;101855.53;5014891;28;20036;-48
2023/06/28 01:53:42;;;;;;;4.07;2.15;;;;;;;20.97;59.81;101856.69;5022419;28;20037;-50
2023/06/28 01:56:07;;;;;;;4.43;2.80;;;;;;;20.97;59.85;101845.84;5015695;28;20361;-48
2023/06/28 01:58:32;;;;;;;6.75;2.65;;;;;;;20.99;60.34;101851.97;5012354;28;20022;-48
2023/06/28 02:00:58;;;;;;;5.97;2.60;;;;;;;20.99;60.05;101844.69;5020083;28;20408;-50
2023/06/28 02:03:23;;;;;;;5.25;1.90;;;;;;;20.99;60.35;101846.56;5017286;28;20057;-49
2023/06/28 02:05:48;;;;;;;5.65;2.30;;;;;;;21.00;60.22;101843.72;5014867;28;20041;-49
2023/06/28 02:08:14;;;;;;;4.18;2.15;;;;;;;20.97;60.43;101841.28;5020997;28;20042;-50
2023/06/28 02:10:39;;;;;;;4.05;2.38;;;;;;;20.97;59.91;101840.44;5016168;28;20040;-47
2023/06/28 02:13:04;;;;;;;6.18;2.22;;;;;;;20.97;60.29;101840.44;5017635;28;20037;-48
2023/06/28 02:15:30;;;;;;;5.53;2.42;;;;;;;20.95;59.94;101845.97;5018894;28;20137;-45
2023/06/28 02:17:58;;;;;;;4.60;2.00;;;;;;;20.95;59.81;101839.72;5017503;28;20103;-50
2023/06/28 02:20:24;;;;;;;4.95;2.22;;;;;;;20.96;59.59;101836.00;5020776;28;20041;-49
2023/06/28 02:22:49;;;;;;;3.78;2.30;;;;;;;20.94;59.39;101836.13;5017500;28;20025;-49
2023/06/28 02:25:15;;;;;;;4.57;2.35;;;;;;;20.94;59.76;101838.84;5019205;28;20120;-50
2023/06/28 02:27:40;;;;;;;3.25;2.13;;;;;;;20.94;59.51;101833.44;5015111;28;20068;-50
2023/06/28 02:30:06;;;;;;;2.97;1.70;;;;;;;20.92;59.70;101830.00;5016353;28;20120;-49
2023/06/28 02:32:32;;;;;;;2.78;1.70;;;;;;;20.94;59.52;101827.16;5017723;28;20111;-49
2023/06/28 02:34:57;;;;;;;5.32;2.28;;;;;;;20.92;59.01;101824.59;5019212;28;20065;-49
2023/06/28 02:37:24;;;;;;;5.65;2.08;;;;;;;20.94;58.90;101830.72;5015022;28;20476;-50
2023/06/28 02:39:49;;;;;;;6.32;1.95;;;;;;;20.95;59.17;101827.03;5020559;28;20024;-49
2023/06/28 02:42:14;;;;;;;5.18;1.88;;;;;;;20.96;58.74;101828.75;5019218;28;20488;-49
2023/06/28 02:44:40;;;;;;;5.10;1.80;;;;;;;20.95;58.63;101827.03;5022552;28;20498;-48
2023/06/28 02:47:05;;;;;;;3.10;1.95;;;;;;;20.94;58.59;101828.00;5014867;28;20032;-50
2023/06/28 02:49:31;;;;;;;3.42;1.88;;;;;;;20.93;58.63;101828.19;5016005;28;20060;-46
2023/06/28 02:51:56;;;;;;;3.13;1.77;;;;;;;20.93;58.72;101826.31;5016516;28;20036;-49
2023/06/28 02:54:22;;;;;;;4.60;2.10;;;;;;;20.92;59.14;101824.59;5015207;28;20391;-49
2023/06/28 02:56:47;;;;;;;5.10;2.40;;;;;;;20.92;59.13;101826.47;5016251;28;20099;-50
2023/06/28 02:59:13;;;;;;;5.43;1.88;;;;;;;20.89;59.10;101822.19;5016155;28;20029;-48
2023/06/28 03:01:38;;;;;;;4.80;1.60;;;;;;;20.89;59.18;101820.34;5016986;28;20061;-49
2023/06/28 03:04:03;;;;;;;2.80;1.67;;;;;;;20.87;59.32;101824.19;5015778;28;20045;-49
2023/06/28 03:06:29;;;;;;;4.50;2.10;;;;;;;20.87;59.39;101824.19;5015563;28;20026;-45
2023/06/28 03:08:55;;;;;;;5.50;2.05;;;;;;;20.84;59.20;101819.91;5016726;28;20068;-49
2023/06/28 03:11:20;;;;;;;6.45;2.47;;;;;;;20.88;59.52;101820.47;5016659;28;20065;-50
2023/06/28 03:13:46;;;;;;;4.78;2.00;;;;;;;20.89;59.91;101822.19;5012015;28;20049;-49
2023/06/28 03:16:11;;;;;;;4.60;1.88;;;;;;;20.88;59.87;101825.88;5017886;28;20053;-46
2023/06/28 03:18:36;;;;;;;6.15;2.30;;;;;;;20.87;59.67;101825.03;5017533;28;20653;-47
2023/06/28 03:21:02;;;;;;;6.43;2.00;;;;;;;20.87;59.57;101824.19;5016217;28;20056;-49
2023/06/28 03:23:27;;;;;;;4.22;2.13;;;;;;;20.86;59.77;101817.91;5018310;28;20472;-48
2023/06/28 03:25:53;;;;;;;4.90;2.20;;;;;;;20.84;59.85;101816.34;5014937;28;20033;-49
2023/06/28 03:28:18;;;;;;;7.60;2.92;;;;;;;20.84;60.11;101819.03;5012943;28;20169;-50
2023/06/28 03:30:44;;;;;;;5.55;2.08;;;;;;;20.87;59.77;101816.91;5014591;28;20042;-50
2023/06/28 03:33:09;;;;;;;6.82;2.25;;;;;;;20.85;60.19;101818.06;5015515;28;20034;-47
2023/06/28 03:35:34;;;;;;;4.47;1.77;;;;;;;20.87;59.77;101810.66;5018413;28;20041;-49
2023/06/28 03:38:00;;;;;;;4.25;2.17;;;;;;;20.86;60.02;101811.63;5024812;28;20080;-50
2023/06/28 03:40:25;;;;;;;5.97;2.22;;;;;;;20.86;59.33;101812.47;5019776;28;20108;-48
2023/06/28 03:42:52;;;;;;;4.35;2.42;;;;;;;20.86;59.55;101814.34;5015193;28;20091;-49
2023/06/28 03:45:18;;;;;;;5.20;2.13;;;;;;;20.85;59.24;101807.22;5014633;28;20480;-50
2023/06/28 03:47:43;;;;;;;5.03;2.38;;;;;;;20.83;59.71;101812.78;5015515;28;20044;-49
2023/06/28 03:50:09;;;;;;;2.67;1.95;;;;;;;20.81;59.34;101808.50;5013718;28;20033;-50
2023/06/28 03:52:35;;;;;;;9.02;2.40;;;;;;;20.82;59.14;101810.22;5017021;28;20422;-46
2023/06/28 03:55:01;;;;;;;5.32;2.10;;;;;;;20.83;59.48;101817.34;5016565;28;20033;-50
2023/06/28 03:57:26;;;;;;;6.97;2.00;;;;;;;20.81;59.63;101812.06;5017725;28;20096;-50
2023/06/28 03:59:52;;;;;;;5.07;2.30;;;;;;;20.82;59.16;101805.66;5015025;28;20365;-50
2023/06/28 04:02:17;;;;;;;4.38;2.08;;;;;;;20.81;59.17;101809.38;5016919;28;20415;-49
2023/06/28 04:04:43;;;;;;;5.13;2.40;;;;;;;20.79;59.68;101810.47;5014174;28;20105;-49
2023/06/28 04:07:08;;;;;;;4.80;2.10;;;;;;;20.78;59.18;101814.22;5013668;28;20049;-47
2023/06/28 04:09:33;;;;;;;5.78;2.28;;;;;;;20.77;59.51;101807.06;5019372;28;20088;-48
2023/06/28 04:11:59;;;;;;;7.80;2.25;;;;;;;20.76;59.63;101802.66;5015285;28;20432;-49
2023/06/28 04:14:24;;;;;;;5.95;2.05;;;;;;;20.72;59.55;101798.53;5016671;28;20417;-48
2023/06/28 04:16:53;;;;;;;4.43;2.00;;;;;;;20.73;59.65;101803.78;5022525;28;20063;-50
2023/06/28 04:19:18;;;;;;;4.47;2.22;;;;;;;20.74;59.45;101797.38;5017229;28;20084;-49
2023/06/28 04:21:44;;;;;;;3.15;2.10;;;;;;;20.74;59.57;101791.97;5016063;28;20038;-49
2023/06/28 04:24:09;;;;;;;4.32;2.35;;;;;;;20.75;59.86;101798.25;5013742;28;20036;-48
2023/06/28 04:26:35;;;;;;;7.15;2.22;;;;;;;20.76;59.47;101792.69;5014985;28;20025;-50
2023/06/28 04:29:00;;;;;;;3.90;2.28;;;;;;;20.77;59.76;101801.66;5016474;28;20037;-50
2023/06/28 04:31:27;;;;;;;5.88;2.25;;;;;;;20.76;59.91;101800.81;5015864;28;20026;-49
2023/06/28 04:33:55;;;;;;;4.88;1.92;;;;;;;20.76;59.25;101799.97;5016319;28;20033;-50
2023/06/28 04:36:21;;;;;;;5.32;2.40;;;;;;;20.76;59.84;101805.38;5016666;28;20029;-50
2023/06/28 04:38:52;;;;;;;6.43;2.40;;;;;;;20.75;59.72;101798.25;5014276;28;20080;-49
2023/06/28 04:41:21;;;;;;;5.55;2.40;;;;;;;20.75;59.70;101800.94;5018890;28;20042;-48
2023/06/28 04:43:46;;;;;;;7.68;2.53;;;;;;;20.72;59.56;101803.94;5020439;28;20041;-49
2023/06/28 04:46:12;;;;;;;3.80;2.45;;;;;;;20.73;60.19;101802.94;5021446;28;20031;-48
2023/06/28 04:48:42;;;;;;;5.95;2.40;;;;;;;20.70;60.36;101810.34;5017022;28;20120;-50
2023/06/28 04:51:08;;;;;;;3.60;2.28;;;;;;;20.71;59.87;101808.47;5018592;28;20116;-48
2023/06/28 04:53:33;;;;;;;6.35;2.15;;;;;;;20.70;60.13;101810.34;5019871;28;20100;-49
2023/06/28 04:56:00;;;;;;;5.90;2.47;;;;;;;20.70;60.14;101804.94;5023548;28;20540;-49
2023/06/28 04:58:25;;;;;;;4.93;2.33;;;;;;;20.70;60.51;101813.06;5014575;28;20117;-50
2023/06/28 05:00:51;;;;;;;6.05;2.83;;;;;;;20.69;60.22;101811.34;5015101;28;20117;-51
2023/06/28 05:03:16;;;;;;;6.25;2.42;;;;;;;20.68;60.67;101814.19;5016123;28;20361;-47
2023/06/28 05:05:42;;;;;;;7.65;2.95;;;;;;;20.68;60.98;101811.50;5017734;28;20113;-50
2023/06/28 05:08:09;;;;;;;5.15;2.50;;;;;;;20.67;60.83;101810.63;5018127;28;20030;-45
2023/06/28 05:10:36;;;;;;;4.75;2.88;;;;;;;20.66;60.64;101813.50;5014868;28;20358;-50
2023/06/28 05:13:01;;;;;;;3.45;2.20;;;;;;;20.64;61.01;101801.94;5016441;28;20055;-46
2023/06/28 05:15:32;;;;;;;5.95;2.58;;;;;;;20.65;60.79;101804.50;5015244;28;20058;-47
2023/06/28 05:17:57;;;;;;;6.35;2.60;;;;;;;20.64;60.94;101802.78;5019496;28;20061;-49
2023/06/28 05:20:22;;;;;;;9.70;3.10;;;;;;;20.63;61.19;101801.06;5017374;28;20496;-48
2023/06/28 05:22:48;;;;;;;7.38;2.70;;;;;;;20.66;60.80;101805.38;5017438;28;20034;-47
2023/06/28 05:25:14;;;;;;;5.35;2.85;;;;;;;20.64;61.01;101800.09;5018084;28;20032;-48
2023/06/28 05:27:39;;;;;;;7.80;3.10;;;;;;;20.67;61.27;101797.09;5019685;28;20033;-50
2023/06/28 05:30:07;;;;;;;7.72;3.00;;;;;;;20.66;61.09;101795.38;5023224;28;20036;-48
2023/06/28 05:32:32;;;;;;;5.15;2.65;;;;;;;20.65;61.31;101799.06;5017264;28;20538;-48
2023/06/28 05:34:58;;;;;;;4.85;3.00;;;;;;;20.67;61.24;101804.34;5020669;28;20037;-49
2023/06/28 05:37:23;;;;;;;5.07;2.78;;;;;;;20.66;61.35;101800.81;5019739;28;20079;-47
2023/06/28 05:39:48;;;;;;;7.88;3.15;;;;;;;20.67;61.23;101797.09;5017436;28;20526;-49
2023/06/28 05:42:14;;;;;;;6.55;3.28;;;;;;;20.67;61.16;101801.66;5022828;28;20079;-48
2023/06/28 05:44:39;;;;;;;5.82;3.38;;;;;;;20.64;61.42;101796.53;5019592;28;20065;-49
2023/06/28 05:47:04;;;;;;;5.53;3.20;;;;;;;20.66;61.43;101802.66;5019582;28;20519;-49
2023/06/28 05:49:31;;;;;;;8.82;3.42;;;;;;;20.62;61.28;101798.50;5019430;28;20439;-48
2023/06/28 05:51:57;;;;;;;6.95;3.58;;;;;;;20.63;61.67;101795.66;5021951;28;20040;-46
2023/06/28 05:54:22;;;;;;;6.50;3.10;;;;;;;20.61;61.55;101785.97;5017251;28;20030;-49
2023/06/28 05:56:48;;;;;;;9.57;3.67;;;;;;;20.61;61.66;101792.25;5018127;28;20029;-46
2023/06/28 05:59:13;;;;;;;7.70;3.80;;;;;;;20.64;62.00;101796.53;5020973;28;20377;-49
2023/06/28 06:01:38;;;;;;;7.22;3.22;;;;;;;20.62;61.68;101793.97;5019310;28;20111;-48
2023/06/28 06:04:04;;;;;;;6.55;3.90;;;;;;;20.59;62.15;101799.63;5018067;28;20029;-49
2023/06/28 06:06:29;;;;;;;7.80;3.17;;;;;;;20.59;61.79;101788.78;5020245;28;20042;-49
2023/06/28 06:08:55;;;;;;;9.05;3.33;;;;;;;20.61;61.41;101791.41;5019601;28;20037;-49
2023/06/28 06:11:20;;;;;;;7.13;3.38;;;;;;;20.61;62.24;101788.69;5025564;28;20404;-48
2023/06/28 06:13:47;;;;;;;7.47;3.08;;;;;;;20.63;61.45;101790.25;5021457;28;20120;-50
2023/06/28 06:16:12;;;;;;;5.57;2.55;;;;;;;20.66;61.59;101789.13;5021653;28;20045;-49
2023/06/28 06:18:40;;;;;;;8.32;3.60;;;;;;;20.67;61.99;101791.66;5018526;28;20045;-49
2023/06/28 06:21:05;;;;;;;6.63;3.25;;;;;;;20.67;61.68;101796.25;5019308;28;20045;-49
2023/06/28 06:23:30;;;;;;;4.70;2.88;;;;;;;20.68;61.16;101789.84;5015107;28;20052;-49
2023/06/28 06:25:56;;;;;;;7.97;3.13;;;;;;;20.68;61.38;101790.69;5022547;28;20021;-48
2023/06/28 06:28:21;;;;;;;4.53;2.83;;;;;;;20.72;61.22;101782.31;5019196;28;20033;-50
2023/06/28 06:30:47;;;;;;;7.65;3.17;;;;;;;20.73;61.45;101779.44;5016031;28;20037;-45
2023/06/28 06:33:12;;;;;;;5.35;3.28;;;;;;;20.75;61.18;101785.56;5013126;28;20025;-49
2023/06/28 06:35:37;;;;;;;5.55;3.22;;;;;;;20.76;60.85;101781.84;5018080;28;20108;-49
2023/06/28 06:38:03;;;;;;;4.47;3.22;;;;;;;20.78;60.84;101781.72;5017473;28;20165;-49
2023/06/28 06:40:28;;;;;;;8.48;3.25;;;;;;;20.79;60.96;101780.72;5012843;28;20080;-49
2023/06/28 06:42:54;;;;;;;6.25;3.20;;;;;;;20.81;60.79;101787.72;5020973;28;20037;-47
2023/06/28 06:45:20;;;;;;;6.85;3.30;;;;;;;20.83;60.87;101784.88;5019333;28;20036;-48
2023/06/28 06:47:45;;;;;;;8.98;3.70;;;;;;;20.82;61.22;101788.56;5012754;28;20034;-50
2023/06/28 06:50:11;;;;;;;9.88;4.07;;;;;;;20.83;60.43;101790.28;5021926;28;20026;-50
2023/06/28 06:52:40;;;;;;;6.60;3.83;;;;;;;20.83;61.00;101806.53;5016402;28;20025;-48
2023/06/28 06:55:06;;;;;;;6.72;4.03;;;;;;;20.84;61.15;101800.94;5017921;28;20042;-48
2023/06/28 06:57:31;;;;;;;16.55;4.38;;;;;;;20.83;60.69;101799.25;5018300;28;20033;-49
2023/06/28 06:59:58;;;;;;;5.82;3.28;;;;;;;20.84;60.48;101797.38;5015957;28;20026;-48
2023/06/28 07:02:23;;;;;;;6.80;3.58;;;;;;;20.85;61.22;101804.53;5018523;28;20369;-51
2023/06/28 07:04:49;;;;;;;10.95;4.07;;;;;;;20.86;60.79;101811.63;5017968;28;20032;-49
2023/06/28 07:07:15;;;;;;;7.03;3.95;;;;;;;20.86;60.77;101798.09;5018024;28;20037;-49
2023/06/28 07:09:40;;;;;;;8.30;3.67;;;;;;;20.89;60.84;101805.94;5017446;28;20076;-50
2023/06/28 07:12:06;;;;;;;11.35;4.10;;;;;;;20.87;60.53;101810.66;5018189;28;20033;-50
2023/06/28 07:14:31;;;;;;;6.80;3.67;;;;;;;20.88;60.87;101809.63;5012575;28;20033;-50
2023/06/28 07:16:56;;;;;;;6.10;3.58;;;;;;;20.88;60.40;101809.63;5018120;28;20136;-48
2023/06/28 07:19:22;;;;;;;6.75;3.70;;;;;;;20.88;61.00;101805.06;5017238;28;20029;-49
2023/06/28 07:21:47;;;;;;;10.82;3.38;;;;;;;20.87;60.61;101808.78;5014142;28;20038;-50
2023/06/28 07:24:13;;;;;;;8.70;3.97;;;;;;;20.88;60.88;101813.19;5019632;28;20025;-47
2023/06/28 07:26:38;;;;;;;7.85;3.88;;;;;;;20.89;60.69;101811.38;5017539;28;20034;-50
2023/06/28 07:29:04;;;;;;;7.90;4.75;;;;;;;20.88;61.01;101815.06;5014400;28;20034;-50
2023/06/28 07:31:29;;;;;;;7.85;3.85;;;;;;;20.88;60.74;101815.06;5016532;28;20105;-50
2023/06/28 07:33:55;;;;;;;7.75;4.30;;;;;;;20.87;61.07;101816.91;5016925;28;20041;-48
2023/06/28 07:36:20;;;;;;;5.18;4.35;;;;;;;20.86;61.19;101814.34;5018465;28;20068;-50
2023/06/28 07:38:46;;;;;;;7.82;4.22;;;;;;;20.86;61.07;101814.34;5017180;28;20025;-50
2023/06/28 07:41:12;;;;;;;7.68;4.28;;;;;;;20.86;61.59;101806.22;5019421;28;20337;-49
2023/06/28 07:43:37;;;;;;;8.18;4.30;;;;;;;20.86;61.10;101809.78;5018046;28;20086;-48
2023/06/28 07:46:03;;;;;;;8.70;4.05;;;;;;;20.87;61.28;101805.25;5016617;28;20033;-47
2023/06/28 07:48:29;;;;;;;6.18;3.92;;;;;;;20.88;61.14;101805.06;5016762;28;20038;-50
2023/06/28 07:50:55;;;;;;;10.85;4.78;;;;;;;20.89;61.33;101814.06;5019398;28;20384;-46
2023/06/28 07:53:20;;;;;;;5.72;3.95;;;;;;;20.87;61.90;101806.09;5017146;28;20041;-50
2023/06/28 07:55:46;;;;;;;8.00;4.53;;;;;;;20.87;61.88;101797.97;5014455;28;20030;-49
2023/06/28 07:58:11;;;;;;;6.32;3.92;;;;;;;20.89;62.21;101808.66;5019364;28;20018;-50
2023/06/28 08:00:36;;;;;;;8.50;4.32;;;;;;;20.87;61.85;101808.78;5020420;28;20026;-48
2023/06/28 08:03:02;;;;;;;7.97;4.32;;;;;;;20.89;61.43;101811.38;5018821;28;20079;-50
2023/06/28 08:05:29;;;;;;;8.60;3.63;;;;;;;20.87;61.75;101813.34;5018527;28;20432;-46
2023/06/28 08:07:54;;;;;;;11.68;3.75;;;;;;;20.86;61.60;101809.78;5016390;28;20034;-48
2023/06/28 08:10:20;;;;;;;7.07;3.85;;;;;;;20.86;61.33;101808.94;5022011;28;20073;-49
2023/06/28 08:12:45;;;;;;;8.35;3.40;;;;;;;20.88;61.49;101801.53;5021613;28;20034;-49
2023/06/28 08:15:11;;;;;;;8.77;4.05;;;;;;;20.89;61.24;101800.53;5022304;28;20444;-48
2023/06/28 08:17:36;;;;;;;6.35;3.17;;;;;;;20.88;61.09;101809.63;5018812;28;20383;-48
2023/06/28 08:20:02;;;;;;;6.68;3.40;;;;;;;20.88;61.25;101798.81;5021695;28;20019;-49
2023/06/28 08:22:27;;;;;;;6.57;3.30;;;;;;;20.87;60.92;101797.97;5021206;28;20040;-48
2023/06/28 08:24:52;;;;;;;7.75;3.20;;;;;;;20.87;60.78;101808.78;5023823;28;20034;-48
2023/06/28 08:27:18;;;;;;;7.45;3.00;;;;;;;20.89;60.86;101800.53;5018345;28;20121;-49
2023/06/28 08:29:43;;;;;;;7.28;3.70;;;;;;;20.88;60.99;101798.81;5022791;28;20049;-51
2023/06/28 08:32:09;;;;;;;8.70;3.20;;;;;;;20.88;60.66;101807.78;5017868;28;20026;-51
2023/06/28 08:34:34;;;;;;;6.90;3.60;;;;;;;20.89;60.33;101805.94;5021766;28;20117;-48
2023/06/28 08:37:00;;;;;;;5.57;3.25;;;;;;;20.89;60.27;101811.38;5023344;28;20041;-48
2023/06/28 08:39:25;;;;;;;12.95;4.10;;;;;;;20.88;60.45;101815.91;5016604;28;20033;-49
2023/06/28 08:41:53;;;;;;;9.15;3.83;;;;;;;20.88;60.63;101817.75;5023373;28;20185;-49
2023/06/28 08:44:22;;;;;;;7.30;2.92;;;;;;;20.88;60.00;101815.91;5023204;28;20072;-46
2023/06/28 08:46:49;;;;;;;8.38;3.83;;;;;;;20.91;60.30;101808.53;5015614;28;20034;-50
2023/06/28 08:49:16;;;;;;;8.75;3.58;;;;;;;20.89;60.44;101816.78;5020773;28;20042;-49
2023/06/28 08:51:42;;;;;;;6.43;3.20;;;;;;;20.89;60.05;101817.63;5019768;28;20038;-50
2023/06/28 08:54:10;;;;;;;7.95;2.70;;;;;;;20.90;60.18;101815.75;5021566;28;20041;-49
2023/06/28 08:56:35;;;;;;;9.02;3.00;;;;;;;20.92;59.74;101812.91;5020582;28;20052;-47
2023/06/28 08:59:02;;;;;;;7.45;3.63;;;;;;;20.91;60.36;101814.78;5030312;28;20034;-50
2023/06/28 09:01:28;;;;;;;7.45;3.22;;;;;;;20.92;60.01;101811.06;5022294;28;20525;-48
2023/06/28 09:03:54;;;;;;;4.88;3.08;;;;;;;20.92;60.03;101800.22;5021061;28;20080;-47
2023/06/28 09:06:21;;;;;;;6.40;3.30;;;;;;;20.93;60.09;101798.41;5017255;28;20416;-48
2023/06/28 09:08:47;;;;;;;6.28;3.50;;;;;;;20.93;60.16;101807.38;5020705;28;20038;-47
2023/06/28 09:11:15;;;;;;;7.60;3.47;;;;;;;20.93;60.01;101787.56;5021158;28;20037;-47
2023/06/28 09:13:41;;;;;;;5.00;3.05;;;;;;;20.94;60.15;101792.81;5021757;28;20080;-51
2023/06/28 09:16:09;;;;;;;6.45;3.00;;;;;;;20.94;59.41;101792.81;5018198;28;20084;-49
2023/06/28 09:18:34;;;;;;;7.20;3.00;;;;;;;20.97;60.21;101792.53;5016916;28;20041;-49
2023/06/28 09:21:00;;;;;;;5.95;3.10;;;;;;;20.97;59.94;101791.69;5017600;28;20034;-48
2023/06/28 09:23:30;;;;;;;6.30;3.20;;;;;;;20.97;60.08;101795.25;5018484;28;20377;-49
2023/06/28 09:25:56;;;;;;;3.13;2.55;;;;;;;20.98;59.96;101791.56;5019773;28;20113;-48
2023/06/28 09:28:23;;;;;;;8.95;3.13;;;;;;;20.98;59.85;101799.69;5018688;28;20026;-48
2023/06/28 09:30:55;;;;;;;7.38;3.72;;;;;;;20.99;59.88;101790.53;5016520;28;20038;-48
2023/06/28 09:33:23;;;;;;;9.48;3.17;;;;;;;21.01;59.55;101790.41;5025627;28;20072;-48
2023/06/28 09:36:10;;;;;;;7.50;3.10;;;;;;;21.03;59.90;101789.25;5019233;28;20040;-47
2023/06/28 09:38:42;;;;;;;5.38;2.95;;;;;;;21.02;59.64;101794.84;5019124;28;20034;-49
2023/06/28 09:41:08;;;;;;;8.98;3.80;;;;;;;21.00;59.93;101800.41;5021434;28;20100;-49
2023/06/28 09:43:35;;;;;;;6.93;2.90;;;;;;;21.01;59.33;101788.56;5018282;28;20034;-50
2023/06/28 09:46:14;;;;;;;9.98;3.53;;;;;;;21.02;59.41;101795.69;5018393;28;20034;-50
2023/06/28 09:48:45;;;;;;;11.43;3.25;;;;;;;21.01;60.11;101793.97;5020693;28;20171;-48
2023/06/28 09:51:11;;;;;;;7.38;3.15;;;;;;;21.04;59.67;101803.69;5018540;28;20091;-50
2023/06/28 09:53:52;;;;;;;7.13;2.97;;;;;;;21.05;59.63;101794.53;5019839;28;20030;-50
2023/06/28 09:56:18;;;;;;;9.83;3.80;;;;;;;21.05;59.94;101784.56;5023807;28;20026;-50
2023/06/28 09:58:47;;;;;;;5.53;2.92;;;;;;;21.06;59.36;101782.72;5016258;28;20034;-48
2023/06/28 10:01:16;;;;;;;5.65;2.67;;;;;;;21.08;59.63;101783.44;5023772;28;20065;-46
2023/06/28 10:03:45;;;;;;;7.65;3.28;;;;;;;21.07;59.35;101782.56;5019304;28;20069;-49
2023/06/28 10:06:11;;;;;;;6.85;3.50;;;;;;;21.07;59.69;101776.28;5017424;28;20552;-48
2023/06/28 10:08:40;;;;;;;6.57;3.00;;;;;;;21.10;59.57;101781.44;5016916;28;20069;-48
2023/06/28 10:11:12;;;;;;;8.23;3.17;;;;;;;21.12;59.83;101779.44;5018523;28;20033;-50
2023/06/28 10:13:40;;;;;;;4.95;2.80;;;;;;;21.14;59.35;101777.44;5016284;28;20027;-51
2023/06/28 10:16:13;;;;;;;7.55;3.17;;;;;;;21.15;59.76;101776.44;5021292;28;20064;-50
2023/06/28 10:18:39;;;;;;;5.82;2.75;;;;;;;21.18;59.61;101775.28;5020457;28;20044;-48
2023/06/28 10:21:07;;;;;;;8.27;2.95;;;;;;;21.20;59.51;101774.13;5018865;28;20072;-48
2023/06/28 10:23:35;;;;;;;7.78;2.67;;;;;;;21.21;59.74;101766.84;5016587;28;20048;-48
2023/06/28 10:26:02;;;;;;;6.70;2.40;;;;;;;21.23;59.54;101770.31;5016466;28;20042;-51
2023/06/28 10:28:31;;;;;;;7.18;3.13;;;;;;;21.24;59.49;101778.25;5023931;28;20038;-49
2023/06/28 10:30:57;;;;;;;5.88;3.20;;;;;;;21.24;59.35;101769.28;5017704;28;20033;-50
2023/06/28 10:33:25;;;;;;;14.13;3.65;;;;;;;21.26;59.42;101770.00;5019178;28;20029;-48
2023/06/28 10:35:50;;;;;;;7.47;2.70;;;;;;;21.26;59.10;101768.13;5021099;28;20457;-49
2023/06/28 10:38:16;;;;;;;5.90;2.65;;;;;;;21.29;59.23;101764.28;5016791;28;20056;-49
2023/06/28 10:40:46;;;;;;;6.00;3.20;;;;;;;21.29;58.78;101762.44;5021651;28;20045;-47
2023/06/28 10:43:24;;;;;;;6.28;3.15;;;;;;;21.32;58.92;101774.81;5017544;28;20030;-49
2023/06/28 10:45:51;;;;;;;8.32;2.90;;;;;;;21.32;59.13;101774.81;5020000;28;20033;-49
2023/06/28 10:48:20;;;;;;;9.18;3.20;;;;;;;21.34;58.91;101778.22;5021977;28;20427;-49
2023/06/28 10:50:47;;;;;;;9.05;3.20;;;;;;;21.33;58.67;101771.13;5017995;28;20455;-48
2023/06/28 10:53:20;;;;;;;8.07;3.03;;;;;;;21.34;58.48;101761.97;5018633;28;20033;-49
2023/06/28 10:56:07;;;;;;;7.88;3.22;;;;;;;21.37;58.66;101769.81;5020931;28;20171;-48
2023/06/28 10:58:38;;;;;;;6.47;3.20;;;;;;;21.37;58.66;101763.56;5020438;28;20025;-50
2023/06/28 11:01:04;;;;;;;;;;;;;;;21.43;58.60;101761.09;5018592;28;20111;-50
2023/06/28 11:03:44;;;;;;;7.35;3.20;;;;;;;21.41;58.33;101765.81;5014222;28;19917;-50
2023/06/28 11:06:11;;;;;;;7.03;3.65;;;;;;;21.40;58.53;101755.13;5019309;28;20033;-49
2023/06/28 11:08:40;;;;;;;7.32;3.20;;;;;;;21.43;58.61;101754.84;5019263;28;20542;-47
2023/06/28 11:11:07;;;;;;;5.18;2.53;;;;;;;21.44;58.71;101757.44;5014357;28;20025;-49
2023/06/28 11:13:39;;;;;;;9.50;2.65;;;;;;;21.45;58.73;101752.88;5014549;28;20029;-50
2023/06/28 11:16:09;;;;;;;5.93;2.83;;;;;;;21.44;58.60;101749.31;5019335;28;20065;-50
2023/06/28 11:18:36;;;;;;;7.40;3.00;;;;;;;21.46;58.60;101746.47;5013833;28;20421;-49
2023/06/28 11:21:02;;;;;;;7.10;2.95;;;;;;;21.47;58.88;101740.03;5014278;28;20062;-48